createdAt,value
2023-03-22T00:00:37.525Z,99832.28
2023-03-22T00:03:04.750Z,99824.22
2023-03-22T00:05:31.917Z,99825.84
2023-03-22T00:07:59.072Z,99830.44
2023-03-22T00:10:29.055Z,99832.31
2023-03-22T00:12:55.858Z,99830.59
2023-03-22T00:15:22.687Z,99833.56
2023-03-22T00:17:52.567Z,99832.84
2023-03-22T00:20:20.848Z,99822.19
2023-03-22T00:22:47.514Z,99831.69
2023-03-22T00:25:17.606Z,99822.38
2023-03-22T00:28:02.616Z,99826.41
2023-03-22T00:30:29.190Z,99825.03
2023-03-22T00:32:55.745Z,99821.09
2023-03-22T00:35:22.359Z,99825.03
2023-03-22T00:37:50.800Z,99822.06
2023-03-22T00:40:18.418Z,99826.44
2023-03-22T00:42:57.388Z,99816.34
2023-03-22T00:45:23.941Z,99821.16
2023-03-22T00:47:50.544Z,99824.69
2023-03-22T00:50:17.197Z,99819.94
2023-03-22T00:52:43.739Z,99818.00
2023-03-22T00:55:32.444Z,99818.63
2023-03-22T00:58:12.498Z,99819.38
2023-03-22T01:00:39.256Z,99821.34
2023-03-22T01:03:06.950Z,99826.03
2023-03-22T01:05:35.037Z,99820.28
2023-03-22T01:08:08.343Z,99822.91
2023-03-22T01:10:38.992Z,99815.50
2023-03-22T01:15:41.426Z,99816.72
2023-03-22T01:18:09.160Z,99819.16
2023-03-22T01:20:36.411Z,99807.81
2023-03-22T01:23:04.033Z,99810.75
2023-03-22T01:25:31.056Z,99802.31
2023-03-22T01:28:04.040Z,99800.66
2023-03-22T01:30:30.740Z,99806.25
2023-03-22T01:33:07.698Z,99801.53
2023-03-22T01:35:36.030Z,99793.47
2023-03-22T01:38:03.612Z,99794.78
2023-03-22T01:40:30.220Z,99792.44
2023-03-22T01:42:56.943Z,99792.22
2023-03-22T01:45:35.875Z,99800.44
2023-03-22T01:48:31.390Z,99803.94
2023-03-22T01:51:30.639Z,99796.88
2023-03-22T01:54:03.977Z,99802.31
2023-03-22T01:56:34.867Z,99806.69
2023-03-22T01:59:02.380Z,99795.78
2023-03-22T02:01:30.023Z,99796.31
2023-03-22T02:04:23.441Z,99802.50
2023-03-22T02:07:10.452Z,99797.44
2023-03-22T02:09:41.385Z,99802.31
2023-03-22T02:12:07.980Z,99802.06
2023-03-22T02:15:06.867Z,99812.59
2023-03-22T02:18:27.105Z,99810.47
2023-03-22T02:21:23.921Z,99816.19
2023-03-22T02:24:43.909Z,99814.28
2023-03-22T02:27:10.546Z,99813.47
2023-03-22T02:29:45.295Z,99811.84
2023-03-22T02:32:11.853Z,99820.75
2023-03-22T02:35:15.430Z,99819.63
2023-03-22T02:38:15.357Z,99816.06
2023-03-22T02:41:11.250Z,99823.94
2023-03-22T02:44:34.966Z,99824.03
2023-03-22T02:47:49.827Z,99830.88
2023-03-22T02:50:24.950Z,99823.94
2023-03-22T02:52:57.594Z,99828.03
2023-03-22T02:55:27.441Z,99825.31
2023-03-22T02:58:07.365Z,99822.78
2023-03-22T03:00:38.879Z,99828.56
2023-03-22T03:03:06.465Z,99829.91
2023-03-22T03:05:33.878Z,99837.34
2023-03-22T03:08:02.730Z,99826.25
2023-03-22T03:10:29.878Z,99826.69
2023-03-22T03:13:05.637Z,99824.38
2023-03-22T03:15:59.083Z,99826.81
2023-03-22T03:18:49.078Z,99818.41
2023-03-22T03:21:35.916Z,99821.94
2023-03-22T03:24:25.905Z,99823.28
2023-03-22T03:27:02.470Z,99815.41
2023-03-22T03:29:50.464Z,99817.28
2023-03-22T03:35:08.672Z,99821.91
2023-03-22T03:37:47.102Z,99815.94
2023-03-22T03:40:20.319Z,99812.94
2023-03-22T03:43:12.436Z,99821.94
2023-03-22T03:45:40.279Z,99821.66
2023-03-22T03:48:19.070Z,99831.19
2023-03-22T03:50:48.317Z,99840.44
2023-03-22T03:53:14.840Z,99835.81
2023-03-22T03:55:41.468Z,99839.34
2023-03-22T03:58:09.523Z,99834.16
2023-03-22T04:00:37.074Z,99831.69
2023-03-22T04:03:16.242Z,99838.16
2023-03-22T04:05:43.254Z,99837.06
2023-03-22T04:08:09.852Z,99836.59
2023-03-22T04:10:36.448Z,99841.16
2023-03-22T04:13:12.554Z,99838.78
2023-03-22T04:15:58.087Z,99838.50
2023-03-22T04:18:24.706Z,99842.78
2023-03-22T04:20:53.556Z,99837.31
2023-03-22T04:23:22.513Z,99831.81
2023-03-22T04:25:50.356Z,99838.19
2023-03-22T04:28:19.785Z,99846.66
2023-03-22T04:30:50.969Z,99849.09
2023-03-22T04:33:18.037Z,99844.12
2023-03-22T04:35:46.349Z,99841.37
2023-03-22T04:38:13.218Z,99838.16
2023-03-22T04:40:46.485Z,99838.41
2023-03-22T04:43:13.908Z,99841.19
2023-03-22T04:45:42.165Z,99840.66
2023-03-22T04:48:33.863Z,99834.37
2023-03-22T04:51:18.810Z,99843.38
2023-03-22T04:53:45.340Z,99847.72
2023-03-22T04:56:13.875Z,99850.22
2023-03-22T04:58:42.573Z,99856.50
2023-03-22T05:01:10.755Z,99859.22
2023-03-22T05:03:38.131Z,99855.63
2023-03-22T05:06:07.384Z,99861.09
2023-03-22T05:08:34.814Z,99868.19
2023-03-22T05:11:11.873Z,99857.25
2023-03-22T05:13:39.136Z,99857.50
2023-03-22T05:16:06.561Z,99866.50
2023-03-22T05:18:33.288Z,99871.44
2023-03-22T05:23:43.232Z,99864.84
2023-03-22T05:26:10.957Z,99874.91
2023-03-22T05:28:37.636Z,99868.53
2023-03-22T05:31:05.604Z,99876.19
2023-03-22T05:33:32.286Z,99871.78
2023-03-22T05:36:01.180Z,99875.06
2023-03-22T05:38:29.224Z,99877.00
2023-03-22T05:40:58.926Z,99870.38
2023-03-22T05:43:25.622Z,99882.34
2023-03-22T05:45:53.055Z,99881.50
2023-03-22T05:48:19.658Z,99890.78
2023-03-22T05:50:46.308Z,99885.69
2023-03-22T05:53:12.903Z,99881.25
2023-03-22T05:55:46.155Z,99880.13
2023-03-22T05:58:12.993Z,99884.09
2023-03-22T06:00:40.524Z,99876.44
2023-03-22T06:03:08.236Z,99887.63
2023-03-22T06:05:40.511Z,99896.38
2023-03-22T06:08:07.197Z,99907.50
2023-03-22T06:11:01.623Z,99904.16
2023-03-22T06:13:28.413Z,99899.28
2023-03-22T06:15:55.022Z,99907.25
2023-03-22T06:18:21.602Z,99908.66
2023-03-22T06:23:23.433Z,99917.03
2023-03-22T06:25:50.499Z,99912.59
2023-03-22T06:28:17.385Z,99913.19
2023-03-22T06:30:43.995Z,99913.47
2023-03-22T06:33:10.800Z,99915.28
2023-03-22T06:35:37.449Z,99913.38
2023-03-22T06:38:04.362Z,99916.91
2023-03-22T06:40:30.913Z,99921.44
2023-03-22T06:42:57.497Z,99915.25
2023-03-22T06:45:24.033Z,99924.56
2023-03-22T06:47:50.958Z,99917.50
2023-03-22T06:50:17.745Z,99920.97
2023-03-22T06:52:44.444Z,99923.50
2023-03-22T06:57:46.277Z,99915.06
2023-03-22T07:00:13.619Z,99922.38
2023-03-22T07:02:40.242Z,99918.00
2023-03-22T07:05:07.225Z,99931.63
2023-03-22T07:07:33.816Z,99939.00
2023-03-22T07:10:00.465Z,99928.09
2023-03-22T07:12:27.675Z,99922.78
2023-03-22T07:15:07.085Z,99928.94
2023-03-22T07:17:33.711Z,99934.06
2023-03-22T07:20:00.409Z,99941.59
2023-03-22T07:22:27.362Z,99934.28
2023-03-22T07:24:57.237Z,99943.81
2023-03-22T07:27:25.485Z,99949.78
2023-03-22T07:29:52.086Z,99946.97
2023-03-22T07:32:19.580Z,99943.53
2023-03-22T07:34:46.444Z,99939.25
2023-03-22T07:37:13.237Z,99932.81
2023-03-22T07:39:39.947Z,99935.31
2023-03-22T07:42:06.901Z,99951.47
2023-03-22T07:44:33.621Z,99952.78
2023-03-22T07:47:00.236Z,99946.78
2023-03-22T07:49:27.241Z,99947.34
2023-03-22T07:51:53.898Z,99945.50
2023-03-22T07:54:32.918Z,99933.28
2023-03-22T07:57:01.804Z,99934.38
2023-03-22T07:59:28.758Z,99944.12
2023-03-22T08:01:55.683Z,99949.25
2023-03-22T08:04:22.939Z,99944.28
2023-03-22T08:06:50.120Z,99940.22
2023-03-22T08:09:17.442Z,99948.56
2023-03-22T08:11:44.031Z,99949.75
2023-03-22T08:14:10.915Z,99942.19
2023-03-22T08:16:38.453Z,99940.06
2023-03-22T08:19:05.332Z,99938.81
2023-03-22T08:21:31.901Z,99942.22
2023-03-22T08:23:58.575Z,99942.91
2023-03-22T08:26:25.516Z,99946.66
2023-03-22T08:28:52.085Z,99938.56
2023-03-22T08:31:20.212Z,99933.09
2023-03-22T08:33:47.305Z,99944.53
2023-03-22T08:36:16.900Z,99947.75
2023-03-22T08:38:44.884Z,99947.13
2023-03-22T08:41:13.093Z,99951.69
2023-03-22T08:43:39.919Z,99953.13
2023-03-22T08:46:06.567Z,99951.16
2023-03-22T08:48:33.895Z,99962.84
2023-03-22T08:51:01.119Z,99963.87
2023-03-22T08:53:28.118Z,99960.69
2023-03-22T08:55:58.054Z,99957.66
2023-03-22T08:58:24.753Z,99956.56
2023-03-22T09:00:51.674Z,99957.53
2023-03-22T09:03:18.791Z,99968.28
2023-03-22T09:05:45.476Z,99961.00
2023-03-22T09:08:18.596Z,99949.06
2023-03-22T09:10:51.838Z,99949.97
2023-03-22T09:13:19.305Z,99946.78
2023-03-22T09:15:46.032Z,99951.09
2023-03-22T09:18:13.136Z,99948.81
2023-03-22T09:20:40.320Z,99954.06
2023-03-22T09:23:07.112Z,99946.56
2023-03-22T09:25:33.916Z,99951.16
2023-03-22T09:28:00.464Z,99950.94
2023-03-22T09:30:27.316Z,99951.69
2023-03-22T09:32:54.207Z,99951.34
2023-03-22T09:35:21.410Z,99949.13
2023-03-22T09:37:49.459Z,99949.78
2023-03-22T09:40:17.754Z,99944.25
2023-03-22T09:42:48.101Z,99943.84
2023-03-22T09:47:54.331Z,99935.13
2023-03-22T09:50:23.204Z,99929.53
2023-03-22T09:52:50.985Z,99935.28
2023-03-22T09:55:39.623Z,99942.16
2023-03-22T09:58:43.832Z,99939.09
2023-03-22T10:01:35.235Z,99943.13
2023-03-22T10:04:26.286Z,99942.47
2023-03-22T10:07:06.824Z,99939.75
2023-03-22T10:09:45.266Z,99934.63
2023-03-22T10:12:25.420Z,99940.63
2023-03-22T10:15:12.911Z,99929.56
2023-03-22T10:17:44.233Z,99935.31
2023-03-22T10:20:41.744Z,99930.94
2023-03-22T10:23:16.237Z,99933.06
2023-03-22T10:25:43.732Z,99930.09
2023-03-22T10:28:21.566Z,99925.19
2023-03-22T10:30:54.618Z,99926.06
2023-03-22T10:33:52.000Z,99931.87
2023-03-22T10:36:23.810Z,99930.25
2023-03-22T10:38:54.589Z,99927.69
2023-03-22T10:41:24.373Z,99931.25
2023-03-22T10:43:58.596Z,99934.22
2023-03-22T10:46:29.977Z,99929.91
2023-03-22T10:48:59.553Z,99928.50
2023-03-22T10:52:20.332Z,99933.22
2023-03-22T10:54:46.934Z,99923.97
2023-03-22T10:57:13.523Z,99923.66
2023-03-22T10:59:55.822Z,99926.28
2023-03-22T11:02:28.166Z,99923.16
2023-03-22T11:04:57.848Z,99918.66
2023-03-22T11:07:32.700Z,99916.03
2023-03-22T11:10:11.314Z,99916.38
2023-03-22T11:12:42.201Z,99910.69
2023-03-22T11:15:25.308Z,99907.63
2023-03-22T11:17:53.583Z,99901.63
2023-03-22T11:20:20.953Z,99899.91
2023-03-22T11:22:49.461Z,99892.31
2023-03-22T11:25:21.664Z,99896.34
2023-03-22T11:27:56.175Z,99896.03
2023-03-22T11:30:28.262Z,99888.13
2023-03-22T11:33:00.835Z,99881.88
2023-03-22T11:35:30.573Z,99880.06
2023-03-22T11:37:58.399Z,99889.44
2023-03-22T11:40:36.195Z,99879.00
2023-03-22T11:43:20.699Z,99875.00
2023-03-22T11:45:50.492Z,99871.97
2023-03-22T11:48:27.384Z,99874.88
2023-03-22T11:50:58.501Z,99868.72
2023-03-22T11:53:27.570Z,99867.38
2023-03-22T11:55:57.369Z,99862.41
2023-03-22T11:59:00.104Z,99866.84
2023-03-22T12:01:41.269Z,99859.97
2023-03-22T12:04:13.853Z,99867.06
2023-03-22T12:06:41.886Z,99864.91
2023-03-22T12:09:39.545Z,99867.38
2023-03-22T12:12:13.900Z,99867.62
2023-03-22T12:15:13.151Z,99871.31
2023-03-22T12:17:54.708Z,99862.63
2023-03-22T12:20:40.897Z,99870.22
2023-03-22T12:23:19.935Z,99866.28
2023-03-22T12:25:58.501Z,99865.50
2023-03-22T12:28:34.592Z,99862.75
2023-03-22T12:31:03.736Z,99865.34
2023-03-22T12:33:39.447Z,99863.13
2023-03-22T12:36:07.808Z,99861.47
2023-03-22T12:38:56.011Z,99852.69
2023-03-22T12:41:32.212Z,99859.28
2023-03-22T12:44:04.583Z,99854.09
2023-03-22T12:46:49.282Z,99858.00
2023-03-22T12:49:21.710Z,99851.91
2023-03-22T12:51:50.265Z,99858.09
2023-03-22T12:54:20.163Z,99855.22
2023-03-22T12:56:47.561Z,99852.12
2023-03-22T12:59:24.366Z,99841.81
2023-03-22T13:01:54.156Z,99833.72
2023-03-22T13:04:29.524Z,99840.06
2023-03-22T13:07:18.069Z,99830.75
2023-03-22T13:09:51.038Z,99832.38
2023-03-22T13:12:17.546Z,99826.78
2023-03-22T13:14:52.849Z,99822.31
2023-03-22T13:17:22.353Z,99816.03
2023-03-22T13:20:07.853Z,99816.22
2023-03-22T13:22:43.220Z,99815.00
2023-03-22T13:25:10.209Z,99812.50
2023-03-22T13:27:45.845Z,99808.59
2023-03-22T13:30:19.753Z,99816.06
2023-03-22T13:33:08.658Z,99808.78
2023-03-22T13:35:56.629Z,99808.97
2023-03-22T13:38:30.710Z,99802.00
2023-03-22T13:41:05.803Z,99801.66
2023-03-22T13:43:52.064Z,99798.94
2023-03-22T13:46:21.492Z,99807.69
2023-03-22T13:48:48.655Z,99809.13
2023-03-22T13:51:26.573Z,99802.00
2023-03-22T13:54:24.275Z,99803.28
2023-03-22T13:56:58.520Z,99797.63
2023-03-22T13:59:28.023Z,99800.22
2023-03-22T14:02:04.896Z,99791.72
2023-03-22T14:04:53.124Z,99783.22
2023-03-22T14:07:40.110Z,99774.28
2023-03-22T14:10:15.979Z,99775.31
2023-03-22T14:12:50.722Z,99780.72
2023-03-22T14:15:20.402Z,99775.94
2023-03-22T14:18:04.672Z,99766.16
2023-03-22T14:20:35.794Z,99775.72
